createdAt,value
2019-06-27T00:03:06.245Z,1021.2
2019-06-27T00:08:06.033Z,1021.2
2019-06-27T00:13:06.192Z,1021.2
2019-06-27T00:18:06.247Z,1021.2
2019-06-27T00:23:06.177Z,1021.2
2019-06-27T00:28:06.203Z,1021.2
2019-06-27T00:33:06.053Z,1021.1
2019-06-27T00:38:06.033Z,1021.1
2019-06-27T00:43:06.194Z,1021.1
2019-06-27T00:48:09.019Z,1021.1
2019-06-27T00:53:09.262Z,1021.2
2019-06-27T00:58:09.161Z,1021.1
2019-06-27T01:03:09.189Z,1021
2019-06-27T01:08:09.044Z,1021.1
2019-06-27T01:13:09.281Z,1021.1
2019-06-27T01:18:09.215Z,1021.2
2019-06-27T01:23:09.082Z,1021.1
2019-06-27T01:28:09.315Z,1021.1
2019-06-27T01:33:09.093Z,1021.1
2019-06-27T01:38:09.268Z,1021.1
2019-06-27T01:43:09.287Z,1021.1
2019-06-27T01:48:09.201Z,1021.1
2019-06-27T01:53:09.234Z,1021.1
2019-06-27T01:58:09.299Z,1021.1
2019-06-27T02:03:09.075Z,1021.1
2019-06-27T02:08:09.242Z,1021.1
2019-06-27T02:13:09.301Z,1021.1
2019-06-27T02:18:09.310Z,1021.2
2019-06-27T02:23:09.255Z,1021.2
2019-06-27T02:28:09.295Z,1021.2
2019-06-27T02:33:09.275Z,1021.2
2019-06-27T02:38:09.263Z,1021.2
2019-06-27T02:43:09.318Z,1021.2
2019-06-27T02:48:09.132Z,1021.4
2019-06-27T02:53:09.281Z,1021.4
2019-06-27T02:58:32.960Z,1021.4
2019-06-27T03:03:09.228Z,1021.4
2019-06-27T03:08:09.280Z,1021.4
2019-06-27T03:13:09.305Z,1021.4
2019-06-27T03:18:09.172Z,1021.4
2019-06-27T03:23:09.378Z,1021.5
2019-06-27T03:28:09.269Z,1021.5
2019-06-27T03:33:09.375Z,1021.6
2019-06-27T03:38:09.380Z,1021.6
2019-06-27T03:43:09.346Z,1021.6
2019-06-27T03:48:09.191Z,1021.6
2019-06-27T03:53:09.132Z,1021.6
2019-06-27T03:58:09.313Z,1021.6
2019-06-27T04:03:09.352Z,1021.5
2019-06-27T04:08:09.361Z,1021.5
2019-06-27T04:13:09.278Z,1021.4
2019-06-27T04:18:09.177Z,1021.4
2019-06-27T04:23:09.149Z,1021.3
2019-06-27T04:28:09.427Z,1021.3
2019-06-27T04:33:09.198Z,1021.3
2019-06-27T04:38:09.379Z,1021.4
2019-06-27T04:43:09.172Z,1021.2
2019-06-27T04:48:09.159Z,1021.2
2019-06-27T04:53:09.359Z,1021.1
2019-06-27T04:58:09.398Z,1021
2019-06-27T05:03:09.457Z,1021
2019-06-27T05:08:09.198Z,1021
2019-06-27T05:13:09.160Z,1020.8
2019-06-27T05:18:09.220Z,1020.8
2019-06-27T05:23:09.189Z,1020.8
2019-06-27T05:28:09.400Z,1020.7
2019-06-27T05:33:09.428Z,1020.5
2019-06-27T05:38:09.185Z,1020.6
2019-06-27T05:43:09.363Z,1020.6
2019-06-27T05:48:09.447Z,1020.7
2019-06-27T05:53:09.442Z,1020.6
2019-06-27T05:58:09.395Z,1020.5
2019-06-27T06:03:09.203Z,1020.6
2019-06-27T06:08:09.337Z,1020.5
2019-06-27T06:13:09.273Z,1020.5
2019-06-27T06:18:09.482Z,1020.5
2019-06-27T06:23:09.350Z,1020.4
2019-06-27T06:28:09.579Z,1020.4
2019-06-27T06:33:09.410Z,1020.3
2019-06-27T06:38:09.461Z,1020.3
2019-06-27T06:43:09.384Z,1020.3
2019-06-27T06:48:09.503Z,1020.3
2019-06-27T06:53:09.369Z,1020.2
2019-06-27T06:58:09.243Z,1020.2
2019-06-27T07:03:09.252Z,1020.1
2019-06-27T07:08:09.462Z,1020
2019-06-27T07:13:09.502Z,1020
2019-06-27T07:18:09.500Z,1020.1
2019-06-27T07:23:09.470Z,1020
2019-06-27T07:28:09.552Z,1020.1
2019-06-27T07:33:10.769Z,1019.9
2019-06-27T07:38:09.436Z,1019.9
2019-06-27T07:43:09.282Z,1019.9
2019-06-27T07:48:09.482Z,1019.9
2019-06-27T07:53:09.405Z,1019.9
2019-06-27T07:58:12.412Z,1019.7
2019-06-27T08:03:09.431Z,1019.7
2019-06-27T08:08:09.483Z,1019.7
2019-06-27T08:13:09.558Z,1019.6
2019-06-27T08:18:09.447Z,1019.7
2019-06-27T08:23:09.508Z,1019.7
2019-06-27T08:28:09.578Z,1019.7
2019-06-27T08:33:09.556Z,1019.8
2019-06-27T08:38:09.299Z,1019.7
2019-06-27T08:43:09.490Z,1019.6
2019-06-27T08:48:09.536Z,1019.7
2019-06-27T08:53:09.304Z,1019.7
2019-06-27T08:58:09.508Z,1019.6
2019-06-27T09:03:09.556Z,1019.6
2019-06-27T09:08:09.346Z,1019.7
2019-06-27T09:13:09.505Z,1019.7
2019-06-27T09:18:09.573Z,1019.8
2019-06-27T09:23:09.331Z,1019.8
2019-06-27T09:28:09.491Z,1019.8
2019-06-27T09:33:09.364Z,1019.6
2019-06-27T09:38:09.717Z,1019.5
2019-06-27T09:43:09.527Z,1019.5
2019-06-27T09:48:09.344Z,1019.6
2019-06-27T09:53:09.357Z,1019.7
2019-06-27T09:58:09.499Z,1019.5
2019-06-27T10:03:09.535Z,1019.4
2019-06-27T10:08:09.566Z,1019.4
2019-06-27T10:13:09.344Z,1019.3
2019-06-27T10:18:09.554Z,1019.2
2019-06-27T10:23:09.382Z,1019.2
2019-06-27T10:28:09.554Z,1019.2
2019-06-27T10:33:09.430Z,1019.2
2019-06-27T10:38:09.577Z,1019.1
2019-06-27T10:43:09.493Z,1019
2019-06-27T10:48:09.373Z,1019
2019-06-27T10:53:09.563Z,1019
2019-06-27T10:58:09.647Z,1018.9
2019-06-27T11:03:16.786Z,1018.7
2019-06-27T11:08:09.623Z,1018.7
2019-06-27T11:13:09.639Z,1018.5
2019-06-27T11:18:09.647Z,1018.5
2019-06-27T11:23:09.449Z,1018.4
2019-06-27T11:28:10.720Z,1018.4
2019-06-27T11:33:09.657Z,1018.3
2019-06-27T11:38:09.582Z,1018.2
2019-06-27T11:43:09.600Z,1018.3
2019-06-27T11:48:09.464Z,1018.4
2019-06-27T11:53:09.538Z,1018.3
2019-06-27T11:58:09.460Z,1018.2
2019-06-27T12:03:09.649Z,1018.2
2019-06-27T12:08:11.429Z,1018.1
2019-06-27T12:13:09.613Z,1017.9
2019-06-27T12:18:09.647Z,1017.9
2019-06-27T12:23:09.709Z,1018
2019-06-27T12:28:09.605Z,1017.9
2019-06-27T12:33:09.612Z,1017.7
2019-06-27T12:38:09.701Z,1017.4
2019-06-27T12:43:09.593Z,1017.4
2019-06-27T12:48:09.671Z,1017.3
2019-06-27T12:53:09.674Z,1017.4
2019-06-27T12:58:09.616Z,1017.3
2019-06-27T13:03:09.644Z,1017.4
2019-06-27T13:08:09.694Z,1017.5
2019-06-27T13:13:09.749Z,1017.2
2019-06-27T13:18:09.633Z,1017
2019-06-27T13:23:09.722Z,1017.2
2019-06-27T13:28:09.719Z,1017.3
2019-06-27T13:33:09.493Z,1017.4
2019-06-27T13:38:09.686Z,1017.4
2019-06-27T13:43:09.801Z,1017.3
2019-06-27T13:48:09.843Z,1017.4
2019-06-27T13:53:09.614Z,1017.2
2019-06-27T13:58:09.745Z,1017.2
2019-06-27T14:03:09.642Z,1017.2
2019-06-27T14:08:09.511Z,1017.1
2019-06-27T14:13:09.742Z,1017.3
2019-06-27T14:18:09.755Z,1017.5
2019-06-27T14:23:09.670Z,1017.6
2019-06-27T14:28:09.715Z,1017.7
2019-06-27T14:33:09.885Z,1017.9
2019-06-27T14:38:09.755Z,1017.7
2019-06-27T14:43:09.714Z,1017.7
2019-06-27T14:48:09.627Z,1017.7
2019-06-27T14:53:09.675Z,1017.8
2019-06-27T14:58:09.803Z,1017.9
2019-06-27T15:03:09.764Z,1017.8
2019-06-27T15:08:09.835Z,1017.6
2019-06-27T15:13:09.749Z,1017.6
2019-06-27T15:18:09.781Z,1017.4
2019-06-27T15:23:09.809Z,1017.4
2019-06-27T15:28:09.782Z,1017.5
2019-06-27T15:33:09.567Z,1017.7
2019-06-27T15:38:09.692Z,1017.7
2019-06-27T15:43:09.771Z,1018
2019-06-27T15:48:09.893Z,1018.1
2019-06-27T15:53:09.575Z,1018.1
2019-06-27T15:58:09.713Z,1018.3
2019-06-27T16:03:09.776Z,1018.4
2019-06-27T16:08:09.788Z,1018.2
2019-06-27T16:13:09.905Z,1018.1
2019-06-27T16:18:09.627Z,1018.1
2019-06-27T16:23:09.948Z,1018.1
2019-06-27T16:28:09.730Z,1018
2019-06-27T16:33:09.791Z,1017.9
2019-06-27T16:38:09.613Z,1017.9
2019-06-27T16:43:09.826Z,1017.8
2019-06-27T16:48:10.764Z,1017.8
2019-06-27T16:53:09.620Z,1017.8
2019-06-27T16:58:09.869Z,1017.8
2019-06-27T17:03:09.761Z,1017.7
2019-06-27T17:08:09.982Z,1017.9
2019-06-27T17:13:09.750Z,1017.9
2019-06-27T17:18:09.816Z,1017.8
2019-06-27T17:23:09.736Z,1017.7
2019-06-27T17:28:09.903Z,1017.9
2019-06-27T17:33:10.033Z,1017.9
2019-06-27T17:38:09.673Z,1018
2019-06-27T17:43:09.711Z,1017.9
2019-06-27T17:48:09.670Z,1017.8
2019-06-27T17:53:09.798Z,1017.7
2019-06-27T17:58:09.889Z,1017.7
2019-06-27T18:03:09.885Z,1017.6
2019-06-27T18:08:10.157Z,1017.6
2019-06-27T18:13:09.838Z,1017.6
2019-06-27T18:18:09.956Z,1017.7
2019-06-27T18:23:09.795Z,1017.8
2019-06-27T18:28:09.665Z,1017.8
2019-06-27T18:33:09.856Z,1018
2019-06-27T18:38:09.927Z,1018
2019-06-27T18:43:09.845Z,1018
2019-06-27T18:48:09.718Z,1018.1
2019-06-27T18:53:10.505Z,1018.1
2019-06-27T18:58:10.100Z,1018.2
2019-06-27T19:03:09.893Z,1018.2
2019-06-27T19:08:09.937Z,1018.3
2019-06-27T19:13:09.939Z,1018.3
2019-06-27T19:18:10.416Z,1018.4
2019-06-27T19:23:09.992Z,1018.4
2019-06-27T19:28:09.935Z,1018.7
2019-06-27T19:33:09.812Z,1018.8
2019-06-27T19:38:09.777Z,1018.9
2019-06-27T19:43:28.300Z,1019
2019-06-27T19:48:09.896Z,1019.1
2019-06-27T19:53:09.902Z,1019.2
2019-06-27T19:58:09.972Z,1019.3
2019-06-27T20:03:09.972Z,1019.4
2019-06-27T20:08:20.442Z,1019.6
2019-06-27T20:13:09.956Z,1019.7
2019-06-27T20:18:09.874Z,1019.8
2019-06-27T20:23:09.912Z,1019.9
2019-06-27T20:28:09.967Z,1019.9
2019-06-27T20:33:09.905Z,1020.1
2019-06-27T20:38:09.939Z,1020.2
2019-06-27T20:43:09.768Z,1020.2
2019-06-27T20:48:09.902Z,1020.4
2019-06-27T20:53:09.754Z,1020.5
2019-06-27T20:58:10.990Z,1020.6
2019-06-27T21:03:09.895Z,1020.6
2019-06-27T21:08:10.829Z,1020.6
2019-06-27T21:13:10.695Z,1020.8
2019-06-27T21:18:10.099Z,1020.8
2019-06-27T21:23:10.852Z,1020.9
2019-06-27T21:28:09.951Z,1021
2019-06-27T21:33:09.935Z,1021.1
2019-06-27T21:38:12.372Z,1021.1
2019-06-27T21:43:09.949Z,1021.2
2019-06-27T21:48:09.943Z,1021.3
2019-06-27T21:53:09.943Z,1021.2
2019-06-27T21:58:09.889Z,1021.3
2019-06-27T22:03:09.936Z,1021.4
2019-06-27T22:08:09.929Z,1021.5
2019-06-27T22:13:09.944Z,1021.6
2019-06-27T22:18:09.807Z,1021.5
2019-06-27T22:23:09.941Z,1021.6
2019-06-27T22:28:09.937Z,1021.6
2019-06-27T22:33:10.069Z,1021.6
2019-06-27T22:38:09.951Z,1021.6
2019-06-27T22:43:09.966Z,1021.6
2019-06-27T22:48:09.940Z,1021.7
2019-06-27T22:53:09.963Z,1021.6
2019-06-27T22:58:09.824Z,1021.5
2019-06-27T23:03:09.959Z,1021.7
2019-06-27T23:08:09.871Z,1021.7
2019-06-27T23:13:09.915Z,1021.7
2019-06-27T23:18:09.843Z,1021.7
2019-06-27T23:23:10.025Z,1021.6
2019-06-27T23:28:10.047Z,1021.8
2019-06-27T23:33:10.187Z,1021.8
2019-06-27T23:38:10.025Z,1021.7
2019-06-27T23:43:10.033Z,1021.7
2019-06-27T23:48:10.111Z,1021.7
2019-06-27T23:53:10.028Z,1021.8
2019-06-27T23:58:10.061Z,1021.8
